ハバロフスク の空港の天気 - METARとTAF

ハバロフスク空港 ( UHHH / KHV ) - ロシア ハバロフスク
飛行場実況気象(Metar)
観測時間05/30 03:30 VLAT (05/29 17:30 UTC)
風向・風速西 7m/s
視程10km以上
天気現象
なし
気温20℃
湿度53%
気圧1008hPa
METARUHHH 291730Z 26007MPS CAVOK 20/10 Q1008 R23L/090060 NOSIG RMK QFE749/0999
過去の天気等 Google飛行場航空写真 Wunderground天気予報

過去48時間のMETAR

飛行場予報(TAF)
発表時間: 5/30 02:58 VLAT (5/29 16:58 UTC)
予報対象時間: 30日4時 VLAT ~ 31日10時 VLAT
風向・風速西南西 8m/s
視程10km以上
なし
30日9時 VLAT ~ 30日19時 VLAT に一時的に
風向・風速西南西 10m/s 瞬間風速 15m/s
TAF UHHH 291658Z 2918/3024 24008MPS CAVOK
TEMPO 2923/3009 25010G15MPS